createdAt,value
2023-05-08T00:00:57.126Z,95.70
2023-05-08T00:03:24.305Z,95.60
2023-05-08T00:05:51.300Z,95.50
2023-05-08T00:08:18.199Z,95.40
2023-05-08T00:10:45.113Z,95.30
2023-05-08T00:13:12.074Z,95.40
2023-05-08T00:15:38.963Z,95.30
2023-05-08T00:18:05.939Z,95.00
2023-05-08T00:20:34.469Z,94.80
2023-05-08T00:23:01.367Z,94.80
2023-05-08T00:25:28.206Z,94.60
2023-05-08T00:27:55.063Z,94.70
2023-05-08T00:30:22.322Z,94.60
2023-05-08T00:32:49.275Z,94.80
2023-05-08T00:35:16.478Z,95.00
2023-05-08T00:37:43.950Z,95.10
2023-05-08T00:40:11.898Z,95.20
2023-05-08T00:42:39.019Z,94.90
2023-05-08T00:45:06.154Z,94.90
2023-05-08T00:47:33.156Z,94.80
2023-05-08T00:50:00.052Z,94.90
2023-05-08T00:52:28.511Z,95.20
2023-05-08T00:54:55.408Z,95.40
2023-05-08T00:57:22.708Z,95.20
2023-05-08T00:59:49.860Z,94.60
2023-05-08T01:02:16.913Z,94.60
2023-05-08T01:04:45.132Z,94.70
2023-05-08T01:07:12.360Z,94.70
2023-05-08T01:09:39.903Z,94.90
2023-05-08T01:12:19.435Z,94.90
2023-05-08T01:15:05.265Z,95.10
2023-05-08T01:17:50.366Z,95.20
2023-05-08T01:20:29.577Z,95.20
2023-05-08T01:23:15.632Z,95.10
2023-05-08T01:26:01.150Z,95.20
2023-05-08T01:28:46.596Z,94.60
2023-05-08T01:31:22.690Z,94.70
2023-05-08T01:34:09.233Z,94.90
2023-05-08T01:36:55.023Z,94.60
2023-05-08T01:39:27.137Z,94.70
2023-05-08T01:41:57.753Z,94.60
2023-05-08T01:44:25.010Z,94.80
2023-05-08T01:46:51.931Z,94.80
2023-05-08T01:49:28.655Z,95.10
2023-05-08T01:52:00.836Z,94.80
2023-05-08T01:54:28.640Z,94.70
2023-05-08T01:56:56.192Z,94.80
2023-05-08T01:59:23.485Z,94.60
2023-05-08T02:01:51.666Z,94.70
2023-05-08T02:04:20.975Z,94.80
2023-05-08T02:06:47.913Z,94.80
2023-05-08T02:09:14.895Z,94.90
2023-05-08T02:11:42.257Z,94.90
2023-05-08T02:14:09.207Z,94.90
2023-05-08T02:16:36.168Z,95.00
2023-05-08T02:19:03.209Z,94.80
2023-05-08T02:21:30.116Z,94.90
2023-05-08T02:23:57.391Z,94.90
2023-05-08T02:26:24.446Z,95.10
2023-05-08T02:28:52.265Z,95.20
2023-05-08T02:31:19.586Z,95.00
2023-05-08T02:33:46.472Z,95.10
2023-05-08T02:36:14.218Z,95.30
2023-05-08T02:38:41.469Z,94.80
2023-05-08T02:41:08.452Z,94.90
2023-05-08T02:43:35.733Z,95.10
2023-05-08T02:46:13.105Z,94.90
2023-05-08T02:48:43.166Z,94.90
2023-05-08T02:51:30.977Z,95.00
2023-05-08T02:54:16.558Z,95.00
2023-05-08T02:56:58.736Z,94.90
2023-05-08T02:59:29.528Z,95.00
2023-05-08T03:02:00.414Z,95.00
2023-05-08T03:04:29.344Z,95.00
2023-05-08T03:06:57.121Z,95.00
2023-05-08T03:09:26.467Z,95.00
2023-05-08T03:11:55.533Z,95.00
2023-05-08T03:14:22.961Z,95.00
2023-05-08T03:16:50.710Z,94.90
2023-05-08T03:19:27.663Z,95.00
2023-05-08T03:21:54.606Z,95.10
2023-05-08T03:24:21.502Z,94.90
2023-05-08T03:26:48.539Z,94.90
2023-05-08T03:29:15.627Z,95.00
2023-05-08T03:31:42.907Z,94.90
2023-05-08T03:34:09.838Z,94.90
2023-05-08T03:36:36.739Z,95.30
2023-05-08T03:39:03.645Z,95.40
2023-05-08T03:41:30.737Z,95.60
2023-05-08T03:43:57.606Z,95.20
2023-05-08T03:46:24.711Z,95.10
2023-05-08T03:48:51.630Z,95.40
2023-05-08T03:51:19.305Z,95.60
2023-05-08T03:53:46.701Z,95.40
2023-05-08T03:56:14.328Z,95.40
2023-05-08T03:58:43.251Z,95.60
2023-05-08T04:01:16.043Z,95.60
2023-05-08T04:03:53.092Z,95.30
2023-05-08T04:06:28.749Z,95.30
2023-05-08T04:09:13.336Z,95.20
2023-05-08T04:12:06.985Z,95.20
2023-05-08T04:14:37.986Z,95.20
2023-05-08T04:17:06.305Z,95.30
2023-05-08T04:19:33.978Z,95.30
2023-05-08T04:22:05.119Z,95.40
2023-05-08T04:24:32.055Z,95.60
2023-05-08T04:26:59.685Z,95.60
2023-05-08T04:29:26.875Z,95.70
2023-05-08T04:31:53.921Z,95.60
2023-05-08T04:34:20.966Z,95.60
2023-05-08T04:36:48.790Z,95.40
2023-05-08T04:39:15.960Z,95.30
2023-05-08T04:41:43.129Z,95.30
2023-05-08T04:44:11.693Z,95.50
2023-05-08T04:46:38.741Z,95.40
2023-05-08T04:49:05.717Z,95.50
2023-05-08T04:51:32.807Z,95.20
2023-05-08T04:54:00.274Z,94.70
2023-05-08T04:56:28.281Z,94.80
2023-05-08T04:58:55.218Z,94.70
2023-05-08T05:01:22.806Z,94.70
2023-05-08T05:03:50.314Z,94.70
2023-05-08T05:06:17.288Z,94.60
2023-05-08T05:08:45.222Z,94.60
2023-05-08T05:11:12.180Z,94.70
2023-05-08T05:13:39.070Z,94.70
2023-05-08T05:16:06.396Z,94.60
2023-05-08T05:18:33.404Z,94.60
2023-05-08T05:21:00.392Z,94.70
2023-05-08T05:23:29.679Z,94.70
2023-05-08T05:25:56.896Z,94.80
2023-05-08T05:28:23.846Z,94.60
2023-05-08T05:30:50.897Z,94.60
2023-05-08T05:33:17.770Z,94.80
2023-05-08T05:35:44.904Z,94.90
2023-05-08T05:38:11.830Z,94.60
2023-05-08T05:40:38.961Z,94.50
2023-05-08T05:43:06.210Z,94.80
2023-05-08T05:45:33.712Z,94.70
2023-05-08T05:48:01.420Z,94.60
2023-05-08T05:50:29.963Z,94.30
2023-05-08T05:52:57.624Z,94.60
2023-05-08T05:55:24.559Z,94.50
2023-05-08T05:57:51.956Z,94.50
2023-05-08T06:00:19.109Z,94.40
2023-05-08T06:02:50.581Z,94.60
2023-05-08T06:05:19.822Z,94.60
2023-05-08T06:07:46.843Z,94.70
2023-05-08T06:10:13.826Z,94.80
2023-05-08T06:12:40.812Z,94.70
2023-05-08T06:15:09.997Z,94.10
2023-05-08T06:17:37.400Z,93.80
2023-05-08T06:20:04.593Z,93.40
2023-05-08T06:22:31.655Z,93.00
2023-05-08T06:24:58.852Z,92.60
2023-05-08T06:27:26.205Z,91.30
2023-05-08T06:29:53.555Z,91.40
2023-05-08T06:32:20.787Z,89.90
2023-05-08T06:34:47.876Z,87.50
2023-05-08T06:37:14.880Z,83.80
2023-05-08T06:39:41.902Z,81.80
2023-05-08T06:42:09.161Z,81.60
2023-05-08T06:44:39.073Z,79.90
2023-05-08T06:47:06.025Z,79.80
2023-05-08T06:49:32.933Z,79.40
2023-05-08T06:51:59.835Z,77.70
2023-05-08T06:54:26.690Z,77.30
2023-05-08T06:56:54.391Z,75.80
2023-05-08T06:59:21.635Z,76.70
2023-05-08T07:01:48.614Z,77.90
2023-05-08T07:04:15.558Z,76.70
2023-05-08T07:06:42.482Z,76.60
2023-05-08T07:09:10.153Z,70.70
2023-05-08T07:11:37.197Z,65.20
2023-05-08T07:14:04.511Z,57.00
2023-05-08T07:16:31.464Z,47.80
2023-05-08T07:18:58.442Z,40.20
2023-05-08T07:21:25.312Z,42.60
2023-05-08T07:23:54.027Z,49.60
2023-05-08T07:26:21.785Z,48.10
2023-05-08T07:28:48.957Z,48.50
2023-05-08T07:31:16.010Z,51.10
2023-05-08T07:33:43.098Z,51.90
2023-05-08T07:36:10.007Z,49.40
2023-05-08T07:38:37.161Z,50.60
2023-05-08T07:41:05.486Z,48.40
2023-05-08T07:43:32.483Z,46.20
2023-05-08T07:45:59.423Z,44.30
2023-05-08T07:48:26.375Z,50.00
2023-05-08T07:50:53.328Z,46.40
2023-05-08T07:53:20.176Z,49.60
2023-05-08T07:55:47.081Z,50.00
2023-05-08T07:58:14.648Z,49.80
2023-05-08T08:00:41.551Z,50.00
2023-05-08T08:03:08.604Z,56.40
2023-05-08T08:05:35.517Z,53.20
2023-05-08T08:08:02.619Z,58.20
2023-05-08T08:10:29.605Z,53.50
2023-05-08T08:12:56.536Z,57.30
2023-05-08T08:15:23.435Z,57.40
2023-05-08T08:17:50.318Z,60.00
2023-05-08T08:20:17.252Z,61.60
2023-05-08T08:22:44.151Z,58.50
2023-05-08T08:25:11.156Z,58.90
2023-05-08T08:27:38.229Z,58.10
2023-05-08T08:30:15.988Z,59.10
2023-05-08T08:32:44.452Z,57.90
2023-05-08T08:35:12.198Z,60.60
2023-05-08T08:37:39.507Z,61.80
2023-05-08T08:40:06.850Z,63.60
2023-05-08T08:42:33.836Z,64.50
2023-05-08T08:45:01.275Z,62.40
2023-05-08T08:47:29.746Z,64.90
2023-05-08T08:49:57.757Z,63.10
2023-05-08T08:52:31.976Z,61.70
2023-05-08T08:55:00.414Z,60.50
2023-05-08T08:57:27.967Z,58.70
2023-05-08T08:59:55.003Z,57.80
2023-05-08T09:02:22.064Z,54.80
2023-05-08T09:04:52.016Z,54.80
2023-05-08T09:07:18.886Z,53.60
2023-05-08T09:09:46.085Z,51.00
2023-05-08T09:12:13.071Z,45.00
2023-05-08T09:14:40.093Z,40.50
2023-05-08T09:17:06.997Z,39.10
2023-05-08T09:19:34.187Z,38.00
2023-05-08T09:22:01.677Z,38.20
2023-05-08T09:24:54.153Z,37.40
2023-05-08T09:27:21.362Z,36.10
2023-05-08T09:30:14.679Z,35.00
2023-05-08T09:32:42.421Z,33.40
2023-05-08T09:35:09.957Z,37.80
2023-05-08T09:37:40.451Z,38.20
2023-05-08T09:40:13.289Z,36.10
2023-05-08T09:42:40.317Z,40.20
2023-05-08T09:45:07.591Z,39.50
2023-05-08T09:47:34.854Z,40.40
2023-05-08T09:50:02.343Z,39.60
2023-05-08T09:52:29.512Z,36.60
2023-05-08T09:54:56.881Z,38.50
2023-05-08T09:57:23.741Z,39.10
2023-05-08T09:59:50.581Z,38.80
2023-05-08T10:02:17.677Z,43.30
2023-05-08T10:04:44.565Z,42.90
2023-05-08T10:07:11.587Z,37.70
2023-05-08T10:09:47.505Z,38.80
2023-05-08T10:12:17.039Z,39.40
2023-05-08T10:14:46.533Z,37.90
2023-05-08T10:17:14.033Z,38.50
2023-05-08T10:19:41.003Z,40.70
2023-05-08T10:22:07.914Z,43.90
2023-05-08T10:24:34.809Z,40.60
2023-05-08T10:27:07.351Z,38.00
2023-05-08T10:29:40.614Z,37.40
2023-05-08T10:32:09.080Z,38.00
2023-05-08T10:34:36.017Z,37.50
2023-05-08T10:37:03.011Z,40.40
2023-05-08T10:39:29.911Z,39.90
2023-05-08T10:41:56.852Z,38.20
2023-05-08T10:44:23.726Z,34.50
2023-05-08T10:46:54.851Z,36.70
2023-05-08T10:49:28.018Z,40.20
2023-05-08T10:52:21.353Z,37.20
2023-05-08T10:54:48.230Z,36.50
2023-05-08T10:57:15.099Z,35.20
2023-05-08T10:59:45.078Z,33.40
2023-05-08T11:02:11.989Z,33.70
2023-05-08T11:04:39.052Z,30.20
2023-05-08T11:07:06.121Z,28.40
2023-05-08T11:09:41.953Z,29.60
2023-05-08T11:12:11.236Z,28.70
2023-05-08T11:14:39.454Z,27.90
2023-05-08T11:17:06.561Z,24.80
2023-05-08T11:19:33.453Z,28.10
2023-05-08T11:22:19.333Z,30.30
2023-05-08T11:24:50.101Z,32.20
2023-05-08T11:27:17.242Z,33.50
2023-05-08T11:29:45.189Z,34.70
2023-05-08T11:32:12.266Z,33.70
2023-05-08T11:34:42.567Z,33.80
2023-05-08T11:37:10.281Z,31.70
2023-05-08T11:39:37.214Z,29.30
2023-05-08T11:42:22.621Z,28.50
2023-05-08T11:44:49.853Z,28.40
2023-05-08T11:47:18.091Z,31.70
2023-05-08T11:49:45.082Z,28.50
2023-05-08T11:52:11.995Z,30.00
2023-05-08T11:54:38.886Z,29.70
2023-05-08T11:57:05.897Z,30.20
2023-05-08T11:59:37.634Z,32.50
2023-05-08T12:02:09.031Z,33.10
2023-05-08T12:04:46.898Z,33.00
2023-05-08T12:07:14.294Z,39.70
2023-05-08T12:09:41.261Z,36.50
2023-05-08T12:12:08.195Z,38.00
2023-05-08T12:14:35.261Z,38.80
2023-05-08T12:17:02.777Z,39.20
2023-05-08T12:19:29.792Z,41.60
2023-05-08T12:21:57.124Z,42.60
2023-05-08T12:24:24.538Z,43.20
2023-05-08T12:26:53.635Z,41.10
2023-05-08T12:29:20.739Z,38.80
2023-05-08T12:31:47.906Z,39.30
2023-05-08T12:34:14.789Z,38.80
2023-05-08T12:36:41.795Z,35.20
2023-05-08T12:39:15.164Z,35.20
2023-05-08T12:41:48.849Z,37.90
2023-05-08T12:44:16.949Z,34.70
2023-05-08T12:46:47.785Z,35.90
2023-05-08T12:49:14.675Z,35.40
2023-05-08T12:51:45.762Z,39.70
2023-05-08T12:54:12.644Z,44.70
2023-05-08T12:56:43.893Z,42.60
2023-05-08T12:59:10.808Z,41.30
2023-05-08T13:01:37.852Z,41.40
2023-05-08T13:04:07.430Z,41.70
2023-05-08T13:06:34.400Z,39.40
2023-05-08T13:09:01.415Z,37.00
2023-05-08T13:11:29.263Z,36.80
2023-05-08T13:13:56.185Z,33.40
2023-05-08T13:16:23.111Z,32.10
2023-05-08T13:18:50.057Z,33.60
2023-05-08T13:21:16.955Z,35.60
2023-05-08T13:23:43.892Z,34.50
2023-05-08T13:26:10.762Z,34.60
2023-05-08T13:28:37.683Z,31.10
2023-05-08T13:31:04.598Z,31.10
2023-05-08T13:33:31.542Z,28.70
2023-05-08T13:35:58.452Z,27.30
2023-05-08T13:38:25.483Z,27.70
2023-05-08T13:40:52.421Z,26.70
2023-05-08T13:43:19.319Z,26.20
2023-05-08T13:45:46.307Z,27.60
2023-05-08T13:48:13.327Z,28.80
2023-05-08T13:50:40.259Z,30.00
2023-05-08T13:53:07.154Z,25.20
2023-05-08T13:55:34.049Z,22.60
2023-05-08T13:58:00.959Z,22.50
2023-05-08T14:00:28.346Z,26.50
2023-05-08T14:02:55.554Z,28.80
2023-05-08T14:05:22.474Z,27.50
2023-05-08T14:07:49.481Z,27.90
2023-05-08T14:10:17.423Z,30.00
2023-05-08T14:12:44.579Z,32.40
2023-05-08T14:15:12.229Z,32.90
2023-05-08T14:17:39.524Z,32.00
2023-05-08T14:20:06.888Z,28.50
2023-05-08T14:22:33.875Z,30.40
2023-05-08T14:25:00.819Z,29.10
2023-05-08T14:27:27.744Z,30.20
2023-05-08T14:29:55.823Z,29.70
2023-05-08T14:32:23.014Z,29.30
2023-05-08T14:34:49.957Z,30.00
2023-05-08T14:37:17.851Z,31.70
2023-05-08T14:39:45.675Z,32.80
2023-05-08T14:44:42.485Z,32.50
2023-05-08T14:47:09.641Z,33.70
2023-05-08T14:49:38.428Z,30.80
2023-05-08T14:52:06.287Z,32.50
2023-05-08T14:54:33.607Z,30.70
2023-05-08T14:57:00.848Z,31.80
2023-05-08T14:59:27.834Z,33.70
2023-05-08T15:01:54.862Z,33.70
2023-05-08T15:04:21.920Z,34.40
2023-05-08T15:06:48.814Z,35.10
2023-05-08T15:09:17.092Z,33.50
2023-05-08T15:11:44.352Z,35.30
2023-05-08T15:14:11.280Z,33.70
2023-05-08T15:16:38.312Z,34.50
2023-05-08T15:19:05.446Z,33.80
2023-05-08T15:21:32.461Z,35.50
2023-05-08T15:23:59.353Z,35.20
2023-05-08T15:26:26.296Z,36.00
2023-05-08T15:28:53.245Z,37.40
2023-05-08T15:31:20.164Z,38.50
2023-05-08T15:33:48.382Z,37.20
2023-05-08T15:36:15.512Z,40.80
2023-05-08T15:38:42.415Z,41.90
2023-05-08T15:41:14.604Z,42.00
2023-05-08T15:43:42.509Z,42.10
2023-05-08T15:46:09.577Z,44.90
2023-05-08T15:48:36.629Z,49.30
2023-05-08T15:51:03.568Z,49.00
2023-05-08T15:53:30.513Z,48.00
2023-05-08T15:55:57.579Z,48.40
2023-05-08T15:58:24.667Z,48.70
2023-05-08T16:00:51.831Z,49.70
2023-05-08T16:03:19.345Z,51.40
2023-05-08T16:05:46.433Z,55.20
2023-05-08T16:08:13.926Z,54.60
2023-05-08T16:10:41.354Z,56.80
2023-05-08T16:13:08.417Z,56.70
2023-05-08T16:15:35.466Z,59.20
2023-05-08T16:18:03.071Z,59.70
2023-05-08T16:20:30.525Z,59.50
2023-05-08T16:22:58.066Z,59.80
2023-05-08T16:25:25.015Z,61.60
2023-05-08T16:27:51.947Z,62.50
2023-05-08T16:30:18.977Z,64.40
2023-05-08T16:32:46.535Z,65.00
2023-05-08T16:35:14.265Z,65.10
2023-05-08T16:37:41.566Z,65.20
2023-05-08T16:40:08.865Z,66.50
2023-05-08T16:42:36.376Z,65.70
2023-05-08T16:45:04.013Z,67.20
2023-05-08T16:47:30.918Z,67.90
2023-05-08T16:49:57.815Z,68.90
2023-05-08T16:52:24.802Z,69.20
2023-05-08T16:54:51.783Z,69.60
2023-05-08T16:57:18.712Z,70.70
2023-05-08T16:59:45.671Z,71.90
2023-05-08T17:02:15.798Z,72.80
2023-05-08T17:04:42.724Z,74.20
2023-05-08T17:07:09.593Z,73.90
2023-05-08T17:09:36.494Z,74.00
2023-05-08T17:12:03.545Z,75.20
2023-05-08T17:14:30.489Z,75.10
2023-05-08T17:16:57.348Z,73.70
2023-05-08T17:19:24.211Z,74.30
2023-05-08T17:21:51.108Z,75.10
2023-05-08T17:24:19.697Z,76.30
2023-05-08T17:26:46.610Z,76.30
2023-05-08T17:29:13.490Z,76.30
2023-05-08T17:31:40.456Z,76.80
2023-05-08T17:34:07.386Z,77.50
2023-05-08T17:36:34.335Z,77.50
2023-05-08T17:39:01.214Z,78.20
2023-05-08T17:41:28.144Z,77.80
2023-05-08T17:43:55.654Z,79.20
2023-05-08T17:46:22.683Z,79.90
2023-05-08T17:48:49.657Z,79.40
2023-05-08T17:51:16.554Z,80.10
2023-05-08T17:53:43.417Z,78.20
2023-05-08T17:56:11.049Z,80.00
2023-05-08T17:58:38.140Z,80.00
2023-05-08T18:01:05.138Z,80.10
2023-05-08T18:03:32.123Z,80.60
2023-05-08T18:05:59.094Z,81.40
2023-05-08T18:08:26.044Z,82.30
2023-05-08T18:10:53.002Z,83.20
2023-05-08T18:13:19.963Z,83.20
2023-05-08T18:15:46.979Z,83.30
2023-05-08T18:18:13.879Z,83.20
2023-05-08T18:20:40.741Z,83.30
2023-05-08T18:23:07.662Z,83.60
2023-05-08T18:25:35.894Z,85.20
2023-05-08T18:28:02.916Z,84.70
2023-05-08T18:30:29.892Z,85.90
2023-05-08T18:32:56.823Z,85.70
2023-05-08T18:35:23.691Z,85.90
2023-05-08T18:37:50.663Z,85.70
2023-05-08T18:40:17.632Z,87.00
2023-05-08T18:42:44.544Z,88.50
2023-05-08T18:45:11.719Z,89.30
2023-05-08T18:47:38.613Z,89.60
2023-05-08T18:50:05.686Z,90.00
2023-05-08T18:52:32.595Z,90.00
2023-05-08T18:54:59.521Z,90.30
2023-05-08T18:57:26.436Z,90.20
2023-05-08T18:59:53.368Z,90.60
2023-05-08T19:02:20.295Z,90.50
2023-05-08T19:04:47.210Z,90.60
2023-05-08T19:07:14.186Z,90.80
2023-05-08T19:09:41.106Z,91.10
2023-05-08T19:12:08.016Z,91.10
2023-05-08T19:14:34.883Z,91.30
2023-05-08T19:17:01.788Z,91.10
2023-05-08T19:19:28.713Z,91.40
2023-05-08T19:21:55.616Z,91.50
2023-05-08T19:24:24.303Z,91.80
2023-05-08T19:26:51.155Z,91.80
2023-05-08T19:29:18.122Z,91.70
2023-05-08T19:31:45.066Z,91.50
2023-05-08T19:34:12.028Z,91.70
2023-05-08T19:36:39.038Z,91.40
2023-05-08T19:39:06.054Z,91.30
2023-05-08T19:41:32.939Z,91.30
2023-05-08T19:43:59.931Z,91.30
2023-05-08T19:46:26.948Z,91.40
2023-05-08T19:48:53.895Z,91.60
2023-05-08T19:51:20.915Z,91.90
2023-05-08T19:53:47.799Z,91.90
2023-05-08T19:56:14.654Z,91.80
2023-05-08T19:58:41.601Z,91.90
2023-05-08T20:01:08.538Z,91.60
2023-05-08T20:03:35.506Z,91.80
2023-05-08T20:06:02.446Z,91.80
2023-05-08T20:08:29.462Z,92.20
2023-05-08T20:10:56.404Z,92.60
2023-05-08T20:13:23.363Z,92.20
2023-05-08T20:15:50.360Z,92.20
2023-05-08T20:18:17.334Z,92.60
2023-05-08T20:20:46.212Z,92.60
2023-05-08T20:23:13.104Z,92.80
2023-05-08T20:25:40.093Z,92.90
2023-05-08T20:28:06.961Z,92.70
2023-05-08T20:30:33.841Z,92.80
2023-05-08T20:33:05.166Z,92.70
2023-05-08T20:35:32.556Z,93.00
2023-05-08T20:37:59.434Z,93.00
2023-05-08T20:40:26.446Z,93.30
2023-05-08T20:42:53.289Z,93.10
2023-05-08T20:45:20.211Z,93.20
2023-05-08T20:47:48.475Z,93.40
2023-05-08T20:50:16.536Z,93.50
2023-05-08T20:52:43.571Z,93.70
2023-05-08T20:55:10.445Z,93.80
2023-05-08T20:57:37.327Z,94.10
2023-05-08T21:00:04.617Z,94.30
2023-05-08T21:02:31.572Z,94.40
2023-05-08T21:04:58.536Z,94.40
2023-05-08T21:07:25.468Z,94.60
2023-05-08T21:09:52.394Z,94.60
2023-05-08T21:12:19.238Z,94.80
2023-05-08T21:14:46.592Z,94.90
2023-05-08T21:17:13.497Z,94.90
2023-05-08T21:19:40.450Z,94.90
2023-05-08T21:22:09.428Z,94.80
2023-05-08T21:24:37.343Z,94.90
2023-05-08T21:27:04.282Z,95.20
2023-05-08T21:29:31.208Z,95.10
2023-05-08T21:31:58.127Z,95.40
2023-05-08T21:34:25.015Z,95.60
2023-05-08T21:36:51.877Z,95.70
2023-05-08T21:39:18.910Z,95.60
2023-05-08T21:41:46.074Z,95.90
2023-05-08T21:44:13.132Z,96.00
2023-05-08T21:46:40.097Z,96.00
2023-05-08T21:49:07.020Z,96.20
2023-05-08T21:51:33.924Z,96.30
2023-05-08T21:54:00.845Z,96.50
2023-05-08T21:56:27.698Z,96.60
2023-05-08T21:58:55.749Z,96.60
2023-05-08T22:01:22.712Z,96.60
2023-05-08T22:03:49.808Z,96.60
2023-05-08T22:06:16.825Z,96.60
2023-05-08T22:08:43.733Z,96.80
2023-05-08T22:11:10.562Z,96.90
2023-05-08T22:13:37.420Z,97.00
2023-05-08T22:16:04.543Z,96.90
2023-05-08T22:18:31.397Z,97.00
2023-05-08T22:20:58.397Z,97.10
2023-05-08T22:23:25.268Z,97.10
2023-05-08T22:25:52.200Z,97.30
2023-05-08T22:28:19.125Z,97.10
2023-05-08T22:30:46.515Z,97.30
2023-05-08T22:33:13.399Z,97.30
2023-05-08T22:35:40.258Z,97.40
2023-05-08T22:38:07.125Z,97.60
2023-05-08T22:40:34.092Z,97.50
2023-05-08T22:43:00.971Z,97.60
2023-05-08T22:45:28.014Z,97.60
2023-05-08T22:47:55.079Z,97.50
2023-05-08T22:50:22.099Z,97.70
2023-05-08T22:52:48.982Z,97.90
2023-05-08T22:55:16.570Z,97.80
2023-05-08T22:57:43.863Z,98.10
2023-05-08T23:00:11.083Z,97.80
2023-05-08T23:02:37.999Z,97.80
2023-05-08T23:05:05.112Z,97.90
2023-05-08T23:07:31.986Z,98.00
2023-05-08T23:09:58.852Z,97.90
2023-05-08T23:12:25.750Z,97.90
2023-05-08T23:14:52.662Z,98.00
2023-05-08T23:17:19.668Z,98.10
2023-05-08T23:19:46.602Z,98.10
2023-05-08T23:22:13.523Z,98.40
2023-05-08T23:24:40.505Z,98.40
2023-05-08T23:27:07.365Z,98.30
2023-05-08T23:29:34.307Z,98.30
2023-05-08T23:32:01.471Z,98.30
2023-05-08T23:34:28.411Z,98.40
2023-05-08T23:36:55.288Z,98.60
2023-05-08T23:39:22.164Z,98.70
2023-05-08T23:41:49.063Z,98.70
2023-05-08T23:44:15.965Z,98.60
2023-05-08T23:46:42.913Z,98.70
2023-05-08T23:49:09.859Z,98.70
2023-05-08T23:51:36.812Z,98.70
2023-05-08T23:54:03.809Z,98.70
2023-05-08T23:56:30.992Z,98.70
2023-05-08T23:58:57.868Z,98.70
